Frost, Minnesota
Current Conditions -  °F | °C
As of 4:35 AM on Monday 22 Dec 2014 (Local Time) from KFRM Reporting Station
Overcast Overcast  
Wind Chill: 30°   Ceiling: 300
Heat Index: 39°   Visibility: 4mi
Dew Point: 36°   Wind: 16mph
Humidity: 87%   Direction: 160°SSE
Pressure: 29.6"   Gusts: NA
Location:  43.59°N, 93.93°W
Report Text: KFRM 221035Z AUTO 16014KT 4SM OVC003 04/02 A2960 RMK AO1
Loading
Personal Weather Stations






























Interactive Weather Map New forecast layout! Learn more

10-Day Weather Forecast

Advertisements
Track Severe Weather on mobile